createdAt,value
2018-09-03T00:01:38.394Z,90.63
2018-09-03T00:04:07.330Z,90.54
2018-09-03T00:06:35.976Z,90.32
2018-09-03T00:09:06.262Z,89.89
2018-09-03T00:11:35.014Z,89.90
2018-09-03T00:14:03.973Z,89.86
2018-09-03T00:16:32.811Z,89.51
2018-09-03T00:19:01.658Z,89.79
2018-09-03T00:21:30.703Z,89.34
2018-09-03T00:23:59.405Z,89.73
2018-09-03T00:26:28.146Z,89.20
2018-09-03T00:28:56.863Z,89.17
2018-09-03T00:31:30.871Z,89.15
2018-09-03T00:34:04.794Z,88.79
2018-09-03T00:36:38.835Z,88.96
2018-09-03T00:39:13.751Z,88.73
2018-09-03T00:41:47.795Z,89.08
2018-09-03T00:44:21.945Z,88.97
2018-09-03T00:46:59.338Z,89.42
2018-09-03T00:49:28.331Z,88.76
2018-09-03T00:51:56.973Z,88.69
2018-09-03T00:54:25.630Z,88.87
2018-09-03T00:56:54.408Z,88.87
2018-09-03T00:59:23.186Z,88.52
2018-09-03T01:01:51.926Z,88.77
2018-09-03T01:04:20.831Z,89.05
2018-09-03T01:06:49.529Z,88.73
2018-09-03T01:09:18.546Z,88.99
2018-09-03T01:11:47.286Z,88.95
2018-09-03T01:14:16.015Z,88.24
2018-09-03T01:16:44.683Z,88.53
2018-09-03T01:19:13.371Z,88.87
2018-09-03T01:21:42.174Z,88.81
2018-09-03T01:24:10.839Z,88.73
2018-09-03T01:26:39.751Z,88.17
2018-09-03T01:29:08.410Z,88.60
2018-09-03T01:31:37.338Z,88.28
2018-09-03T01:34:06.103Z,87.42
2018-09-03T01:36:34.750Z,87.25
2018-09-03T01:39:03.613Z,88.22
2018-09-03T01:41:32.282Z,88.36
2018-09-03T01:44:01.080Z,87.90
2018-09-03T01:46:29.741Z,88.04
2018-09-03T01:49:01.473Z,87.29
2018-09-03T01:51:30.418Z,87.20
2018-09-03T01:53:59.152Z,87.11
2018-09-03T01:56:27.787Z,86.96
2018-09-03T01:58:56.666Z,87.29
2018-09-03T02:01:25.317Z,87.21
2018-09-03T02:03:54.110Z,87.24
2018-09-03T02:06:22.794Z,86.94
2018-09-03T02:08:51.490Z,86.84
2018-09-03T02:11:20.243Z,87.45
2018-09-03T02:13:49.021Z,88.07
2018-09-03T02:16:17.709Z,88.45
2018-09-03T02:18:46.525Z,88.49
2018-09-03T02:21:15.288Z,88.88
2018-09-03T02:23:44.150Z,88.58
2018-09-03T02:26:12.864Z,88.87
2018-09-03T02:28:41.605Z,88.38
2018-09-03T02:31:10.301Z,88.28
2018-09-03T02:33:39.613Z,88.40
2018-09-03T02:36:08.318Z,88.83
2018-09-03T02:38:37.046Z,88.50
2018-09-03T02:41:06.061Z,88.04
2018-09-03T02:43:35.171Z,87.64
2018-09-03T02:46:03.827Z,88.19
2018-09-03T02:48:32.489Z,87.67
2018-09-03T02:51:01.230Z,87.26
2018-09-03T02:53:30.090Z,88.36
2018-09-03T02:55:58.787Z,88.54
2018-09-03T02:58:27.509Z,88.18
2018-09-03T03:00:56.274Z,87.79
2018-09-03T03:03:24.981Z,87.84
2018-09-03T03:05:53.980Z,87.52
2018-09-03T03:08:22.735Z,88.05
2018-09-03T03:10:51.526Z,87.86
2018-09-03T03:13:20.311Z,87.54
2018-09-03T03:15:48.945Z,87.72
2018-09-03T03:18:17.785Z,88.09
2018-09-03T03:20:46.458Z,88.30
2018-09-03T03:23:15.166Z,89.27
2018-09-03T03:25:43.875Z,88.82
2018-09-03T03:28:12.513Z,88.88
2018-09-03T03:30:41.201Z,88.18
2018-09-03T03:33:09.936Z,88.19
2018-09-03T03:35:38.779Z,88.39
2018-09-03T03:38:07.469Z,89.30
2018-09-03T03:40:36.101Z,88.97
2018-09-03T03:43:04.853Z,89.34
2018-09-03T03:45:33.674Z,89.05
2018-09-03T03:48:02.355Z,89.04
2018-09-03T03:50:31.197Z,88.75
2018-09-03T03:52:59.913Z,88.78
2018-09-03T03:55:28.665Z,88.99
2018-09-03T03:57:57.533Z,89.19
2018-09-03T04:00:26.266Z,89.62
2018-09-03T04:02:55.099Z,89.09
2018-09-03T04:05:23.752Z,89.13
2018-09-03T04:07:52.469Z,89.08
2018-09-03T04:10:21.458Z,88.17
2018-09-03T04:12:54.129Z,88.34
2018-09-03T04:15:23.891Z,88.11
2018-09-03T04:17:52.601Z,88.31
2018-09-03T04:20:21.274Z,87.59
2018-09-03T04:22:50.051Z,87.97
2018-09-03T04:25:18.800Z,87.78
2018-09-03T04:27:47.542Z,88.56
2018-09-03T04:30:16.370Z,88.53
2018-09-03T04:32:45.034Z,89.02
2018-09-03T04:35:13.995Z,89.42
2018-09-03T04:37:42.756Z,89.66
2018-09-03T04:40:11.545Z,90.32
2018-09-03T04:42:40.254Z,89.73
2018-09-03T04:45:09.030Z,89.74
2018-09-03T04:47:37.902Z,89.58
2018-09-03T04:50:06.727Z,90.02
2018-09-03T04:52:35.433Z,90.22
2018-09-03T04:55:04.315Z,90.57
2018-09-03T04:57:33.014Z,90.46
2018-09-03T05:00:01.870Z,90.75
2018-09-03T05:02:30.602Z,90.44
2018-09-03T05:04:59.291Z,91.22
2018-09-03T05:07:27.977Z,90.77
2018-09-03T05:09:56.673Z,90.82
2018-09-03T05:12:25.587Z,90.67
2018-09-03T05:14:54.227Z,90.41
2018-09-03T05:17:23.038Z,90.59
2018-09-03T05:19:51.697Z,91.01
2018-09-03T05:22:20.469Z,90.65
2018-09-03T05:24:49.639Z,90.85
2018-09-03T05:27:18.565Z,90.46
2018-09-03T05:29:47.550Z,90.51
2018-09-03T05:32:16.237Z,90.45
2018-09-03T05:34:45.274Z,89.41
2018-09-03T05:37:14.054Z,89.07
2018-09-03T05:39:42.968Z,88.97
2018-09-03T05:42:11.625Z,88.06
2018-09-03T05:44:40.571Z,87.55
2018-09-03T05:47:09.313Z,87.74
2018-09-03T05:49:37.961Z,88.12
2018-09-03T05:52:06.737Z,87.89
2018-09-03T05:54:35.494Z,88.04
2018-09-03T05:57:04.421Z,87.91
2018-09-03T05:59:33.102Z,88.34
2018-09-03T06:02:01.857Z,88.50
2018-09-03T06:04:30.805Z,88.08
2018-09-03T06:06:59.504Z,88.29
2018-09-03T06:09:28.972Z,88.58
2018-09-03T06:11:57.817Z,87.81
2018-09-03T06:14:26.545Z,86.82
2018-09-03T06:16:55.331Z,86.76
2018-09-03T06:19:24.089Z,86.42
2018-09-03T06:21:52.754Z,86.20
2018-09-03T06:24:21.572Z,87.05
2018-09-03T06:26:50.222Z,87.41
2018-09-03T06:29:19.138Z,87.71
2018-09-03T06:31:47.846Z,87.32
2018-09-03T06:34:16.537Z,86.89
2018-09-03T06:36:45.205Z,86.85
2018-09-03T06:39:13.928Z,87.10
2018-09-03T06:41:42.597Z,86.29
2018-09-03T06:44:11.225Z,85.50
2018-09-03T06:46:39.980Z,85.14
2018-09-03T06:49:08.751Z,84.36
2018-09-03T06:51:37.383Z,84.68
2018-09-03T06:54:06.253Z,84.74
2018-09-03T06:56:34.996Z,84.37
2018-09-03T06:59:03.730Z,84.68
2018-09-03T07:01:32.579Z,84.56
2018-09-03T07:04:01.319Z,84.05
2018-09-03T07:06:30.078Z,84.15
2018-09-03T07:08:59.383Z,84.19
2018-09-03T07:11:28.274Z,83.57
2018-09-03T07:13:57.025Z,83.88
2018-09-03T07:16:25.756Z,84.40
2018-09-03T07:18:54.525Z,84.44
2018-09-03T07:21:23.246Z,84.60
2018-09-03T07:23:52.213Z,83.87
2018-09-03T07:26:21.421Z,84.46
2018-09-03T07:28:50.326Z,84.03
2018-09-03T07:31:19.459Z,83.68
2018-09-03T07:33:48.196Z,84.44
2018-09-03T07:36:16.969Z,84.60
2018-09-03T07:38:45.829Z,86.41
2018-09-03T07:41:14.532Z,84.81
2018-09-03T07:43:43.247Z,84.06
2018-09-03T07:46:11.890Z,84.09
2018-09-03T07:48:40.933Z,84.14
2018-09-03T07:51:09.727Z,84.61
2018-09-03T07:53:38.369Z,83.84
2018-09-03T07:56:07.174Z,83.81
2018-09-03T07:58:35.845Z,84.22
2018-09-03T08:01:04.940Z,84.20
2018-09-03T08:03:33.522Z,84.36
2018-09-03T08:06:02.503Z,84.79
2018-09-03T08:08:31.423Z,83.70
2018-09-03T08:11:00.086Z,83.48
2018-09-03T08:13:34.445Z,84.42
2018-09-03T08:16:03.183Z,84.96
2018-09-03T08:18:31.913Z,83.95
2018-09-03T08:21:00.993Z,84.89
2018-09-03T08:23:29.773Z,84.72
2018-09-03T08:25:58.797Z,84.83
2018-09-03T08:28:27.593Z,84.36
2018-09-03T08:30:56.416Z,84.67
2018-09-03T08:33:25.297Z,84.60
2018-09-03T08:35:54.130Z,83.58
2018-09-03T08:38:23.169Z,83.43
2018-09-03T08:40:51.841Z,83.13
2018-09-03T08:43:20.611Z,83.46
2018-09-03T08:45:49.349Z,83.83
2018-09-03T08:48:18.077Z,81.98
2018-09-03T08:50:46.789Z,81.57
2018-09-03T08:53:15.567Z,81.50
2018-09-03T08:55:44.218Z,81.44
2018-09-03T08:58:13.074Z,81.56
2018-09-03T09:00:41.822Z,80.96
2018-09-03T09:03:15.603Z,79.75
2018-09-03T09:05:44.448Z,80.67
2018-09-03T09:08:13.100Z,80.73
2018-09-03T09:10:42.290Z,80.62
2018-09-03T09:13:11.239Z,81.02
2018-09-03T09:15:40.217Z,80.72
2018-09-03T09:18:11.789Z,80.49
2018-09-03T09:20:40.457Z,79.65
2018-09-03T09:23:09.290Z,80.97
2018-09-03T09:25:38.003Z,81.00
2018-09-03T09:28:06.835Z,81.85
2018-09-03T09:30:35.634Z,81.46
2018-09-03T09:33:04.607Z,82.10
2018-09-03T09:35:33.566Z,82.78
2018-09-03T09:38:02.330Z,81.76
2018-09-03T09:40:31.186Z,81.49
2018-09-03T09:43:00.015Z,81.79
2018-09-03T09:45:29.411Z,81.15
2018-09-03T09:47:58.238Z,80.42
2018-09-03T09:50:26.923Z,81.28
2018-09-03T09:52:55.714Z,81.14
2018-09-03T09:55:24.531Z,80.83
2018-09-03T09:57:53.314Z,79.94
2018-09-03T10:00:27.145Z,80.65
2018-09-03T10:02:56.123Z,79.45
2018-09-03T10:05:24.973Z,80.19
2018-09-03T10:07:53.645Z,80.36
2018-09-03T10:10:22.470Z,80.03
2018-09-03T10:12:51.279Z,80.39
2018-09-03T10:15:20.110Z,81.38
2018-09-03T10:17:48.918Z,81.27
2018-09-03T10:20:17.700Z,80.92
2018-09-03T10:22:46.401Z,79.60
2018-09-03T10:25:15.166Z,80.13
2018-09-03T10:27:44.104Z,80.29
2018-09-03T10:30:12.877Z,80.02
2018-09-03T10:32:41.725Z,79.32
2018-09-03T10:35:10.782Z,79.26
2018-09-03T10:37:39.626Z,78.99
2018-09-03T10:40:08.354Z,79.43
2018-09-03T10:42:37.122Z,79.21
2018-09-03T10:45:05.969Z,79.22
2018-09-03T10:47:34.919Z,78.35
2018-09-03T10:50:03.661Z,78.11
2018-09-03T10:52:32.626Z,79.23
2018-09-03T10:55:01.506Z,78.18
2018-09-03T10:57:30.146Z,79.04
2018-09-03T10:59:58.938Z,79.36
2018-09-03T11:02:27.733Z,79.75
2018-09-03T11:04:56.619Z,79.51
2018-09-03T11:07:25.867Z,79.63
2018-09-03T11:09:54.637Z,79.65
2018-09-03T11:12:23.744Z,79.75
2018-09-03T11:14:52.498Z,78.93
2018-09-03T11:17:21.298Z,80.07
2018-09-03T11:20:07.351Z,80.36
2018-09-03T11:22:35.973Z,79.75
2018-09-03T11:25:05.189Z,78.97
2018-09-03T11:27:34.089Z,79.81
2018-09-03T11:30:03.014Z,80.16
2018-09-03T11:32:31.872Z,80.19
2018-09-03T11:35:00.628Z,80.40
2018-09-03T11:37:29.542Z,80.53
2018-09-03T11:39:58.309Z,80.72
2018-09-03T11:42:27.541Z,80.65
2018-09-03T11:44:56.310Z,80.75
2018-09-03T11:47:25.254Z,82.00
2018-09-03T11:49:54.069Z,81.09
2018-09-03T11:52:22.792Z,81.27
2018-09-03T11:54:51.491Z,80.75
2018-09-03T11:57:20.251Z,80.81
2018-09-03T11:59:49.041Z,80.33
2018-09-03T12:02:17.732Z,81.31
2018-09-03T12:04:48.233Z,81.67
2018-09-03T12:07:17.066Z,81.40
2018-09-03T12:09:45.716Z,80.57
2018-09-03T12:12:14.401Z,79.27
2018-09-03T12:14:45.463Z,79.32
2018-09-03T12:17:14.373Z,78.65
2018-09-03T12:19:43.258Z,77.84
2018-09-03T12:22:12.088Z,77.90
2018-09-03T12:24:40.819Z,77.08
2018-09-03T12:27:09.674Z,77.27
2018-09-03T12:29:38.459Z,77.41
2018-09-03T12:32:07.593Z,79.42
2018-09-03T12:34:36.295Z,77.26
2018-09-03T12:37:06.006Z,76.91
2018-09-03T12:39:35.152Z,76.70
2018-09-03T12:42:03.873Z,77.03
2018-09-03T12:44:32.689Z,75.85
2018-09-03T12:47:01.890Z,75.81
2018-09-03T12:49:30.611Z,75.52
2018-09-03T12:51:59.890Z,75.47
2018-09-03T12:54:28.962Z,76.65
2018-09-03T12:56:57.813Z,75.40
2018-09-03T12:59:26.478Z,74.28
2018-09-03T13:01:55.240Z,74.61
2018-09-03T13:04:24.144Z,73.62
2018-09-03T13:06:52.897Z,71.63
2018-09-03T13:09:21.906Z,70.84
2018-09-03T13:11:50.772Z,71.22
2018-09-03T13:14:19.578Z,70.96
2018-09-03T13:16:48.692Z,71.02
2018-09-03T13:19:17.520Z,72.71
2018-09-03T13:24:14.093Z,71.88
2018-09-03T13:26:43.003Z,71.42
2018-09-03T13:29:12.024Z,71.65
2018-09-03T13:31:40.925Z,70.88
2018-09-03T13:34:09.679Z,72.02
2018-09-03T13:36:38.367Z,72.39
2018-09-03T13:39:09.102Z,71.77
2018-09-03T13:44:05.794Z,70.97
2018-09-03T13:46:34.861Z,69.98
2018-09-03T13:49:03.639Z,70.38
2018-09-03T13:51:32.361Z,69.48
2018-09-03T13:54:01.361Z,70.26
2018-09-03T13:56:30.186Z,70.05
2018-09-03T13:58:58.957Z,69.71
2018-09-03T14:01:27.806Z,69.34
2018-09-03T14:03:56.466Z,69.95
2018-09-03T14:06:25.375Z,71.01
2018-09-03T14:08:54.059Z,69.33
2018-09-03T14:11:22.899Z,70.11
2018-09-03T14:13:51.598Z,68.17
2018-09-03T14:16:20.410Z,68.01
2018-09-03T14:18:49.259Z,67.97
2018-09-03T14:21:18.261Z,67.69
2018-09-03T14:23:46.992Z,66.66
2018-09-03T14:26:15.686Z,68.63
2018-09-03T14:28:44.562Z,69.12
2018-09-03T14:31:13.275Z,67.76
2018-09-03T14:33:42.036Z,69.92
2018-09-03T14:36:10.865Z,71.33
2018-09-03T14:38:39.673Z,70.47
2018-09-03T14:41:08.335Z,71.72
2018-09-03T14:43:37.073Z,72.64
2018-09-03T14:46:06.077Z,70.21
2018-09-03T14:48:34.850Z,68.27
2018-09-03T14:51:03.605Z,67.84
2018-09-03T14:53:32.446Z,66.52
2018-09-03T14:56:01.134Z,63.69
2018-09-03T14:58:29.995Z,64.05
2018-09-03T15:00:58.724Z,65.31
2018-09-03T15:03:27.387Z,66.06
2018-09-03T15:05:56.024Z,64.84
2018-09-03T15:08:25.047Z,64.21
2018-09-03T15:10:53.695Z,64.47
2018-09-03T15:13:22.356Z,66.71
2018-09-03T15:15:51.140Z,66.48
2018-09-03T15:18:19.905Z,67.14
2018-09-03T15:20:48.845Z,67.94
2018-09-03T15:23:17.493Z,66.81
2018-09-03T15:25:46.177Z,67.37
2018-09-03T15:28:14.903Z,64.79
2018-09-03T15:30:43.611Z,66.15
2018-09-03T15:33:12.362Z,65.18
2018-09-03T15:35:41.364Z,66.85
2018-09-03T15:38:10.122Z,66.71
2018-09-03T15:40:38.930Z,66.76
2018-09-03T15:43:07.599Z,67.44
2018-09-03T15:45:36.405Z,66.25
2018-09-03T15:48:05.260Z,66.63
2018-09-03T15:50:34.080Z,66.59
2018-09-03T15:53:03.002Z,68.92
2018-09-03T15:55:31.897Z,68.59
2018-09-03T15:58:00.739Z,66.96
2018-09-03T16:00:29.641Z,66.02
2018-09-03T16:02:58.483Z,65.98
2018-09-03T16:05:27.273Z,65.93
2018-09-03T16:07:55.986Z,67.36
2018-09-03T16:10:24.930Z,66.79
2018-09-03T16:12:53.594Z,66.31
2018-09-03T16:15:22.385Z,66.64
2018-09-03T16:17:51.252Z,66.83
2018-09-03T16:20:19.912Z,65.92
2018-09-03T16:22:48.878Z,65.15
2018-09-03T16:25:17.853Z,64.08
2018-09-03T16:27:46.698Z,64.21
2018-09-03T16:30:15.451Z,64.70
2018-09-03T16:32:44.096Z,64.19
2018-09-03T16:35:12.929Z,64.47
2018-09-03T16:37:41.741Z,64.06
2018-09-03T16:40:11.082Z,65.96
2018-09-03T16:42:39.951Z,67.19
2018-09-03T16:45:08.698Z,65.81
2018-09-03T16:47:37.570Z,65.05
2018-09-03T16:50:06.569Z,65.74
2018-09-03T16:52:35.348Z,65.05
2018-09-03T16:55:04.078Z,66.51
2018-09-03T16:57:32.773Z,67.44
2018-09-03T17:00:01.632Z,67.49
2018-09-03T17:02:30.463Z,69.48
2018-09-03T17:04:59.233Z,69.60
2018-09-03T17:07:28.053Z,70.10
2018-09-03T17:09:56.736Z,71.56
2018-09-03T17:12:25.978Z,69.89
2018-09-03T17:14:54.842Z,71.81
2018-09-03T17:17:24.192Z,74.55
2018-09-03T17:19:53.265Z,75.29
2018-09-03T17:22:21.913Z,76.06
2018-09-03T17:24:50.655Z,75.40
2018-09-03T17:27:19.505Z,75.47
2018-09-03T17:29:48.265Z,75.52
2018-09-03T17:32:17.006Z,75.93
2018-09-03T17:34:45.673Z,77.78
2018-09-03T17:37:14.692Z,78.35
2018-09-03T17:39:43.381Z,78.31
2018-09-03T17:42:12.134Z,78.79
2018-09-03T17:44:41.067Z,79.91
2018-09-03T17:47:09.794Z,79.13
2018-09-03T17:49:38.753Z,80.35
2018-09-03T17:52:07.516Z,80.39
2018-09-03T17:54:36.277Z,80.68
2018-09-03T17:57:05.112Z,80.23
2018-09-03T17:59:33.915Z,81.12
2018-09-03T18:02:03.035Z,81.84
2018-09-03T18:04:31.733Z,82.00
2018-09-03T18:07:00.435Z,83.47
2018-09-03T18:09:29.230Z,84.22
2018-09-03T18:11:58.007Z,84.28
2018-09-03T18:14:26.802Z,83.88
2018-09-03T18:16:55.482Z,84.84
2018-09-03T18:19:24.386Z,84.98
2018-09-03T18:21:53.374Z,85.52
2018-09-03T18:24:22.201Z,85.99
2018-09-03T18:26:51.096Z,86.44
2018-09-03T18:29:19.855Z,86.43
2018-09-03T18:31:48.679Z,86.83
2018-09-03T18:34:17.393Z,86.44
2018-09-03T18:36:46.090Z,85.94
2018-09-03T18:39:15.106Z,82.00
2018-09-03T18:41:43.801Z,80.63
2018-09-03T18:44:12.478Z,79.87
2018-09-03T18:46:41.607Z,81.19
2018-09-03T18:49:10.283Z,79.32
2018-09-03T18:51:39.062Z,80.71
2018-09-03T18:54:07.437Z,81.57
2018-09-03T18:56:36.104Z,80.99
2018-09-03T18:59:05.235Z,82.49
2018-09-03T19:01:34.007Z,81.76
2018-09-03T19:04:02.818Z,81.02
2018-09-03T19:06:31.689Z,81.52
2018-09-03T19:09:00.669Z,82.73
2018-09-03T19:11:29.745Z,82.10
2018-09-03T19:13:58.613Z,82.18
2018-09-03T19:16:27.354Z,82.21
2018-09-03T19:18:56.312Z,80.89
2018-09-03T19:21:25.009Z,81.60
2018-09-03T19:23:53.874Z,81.70
2018-09-03T19:26:22.822Z,82.08
2018-09-03T19:28:51.540Z,81.39
2018-09-03T19:31:20.215Z,82.15
2018-09-03T19:33:49.130Z,83.15
2018-09-03T19:36:17.949Z,83.32
2018-09-03T19:38:46.701Z,82.90
2018-09-03T19:41:15.489Z,83.16
2018-09-03T19:43:44.174Z,83.04
2018-09-03T19:46:12.831Z,82.60
2018-09-03T19:48:41.868Z,83.09
2018-09-03T19:51:10.588Z,83.95
2018-09-03T19:53:39.275Z,83.66
2018-09-03T19:56:08.009Z,83.61
2018-09-03T19:58:36.770Z,83.41
2018-09-03T20:01:05.991Z,82.44
2018-09-03T20:03:34.849Z,83.09
2018-09-03T20:06:03.733Z,83.94
2018-09-03T20:08:33.502Z,83.26
2018-09-03T20:11:02.369Z,84.03
2018-09-03T20:13:31.681Z,84.80
2018-09-03T20:16:00.432Z,85.63
2018-09-03T20:18:29.165Z,85.94
2018-09-03T20:20:58.137Z,85.81
2018-09-03T20:23:26.888Z,86.71
2018-09-03T20:25:55.924Z,86.77
2018-09-03T20:28:24.710Z,86.27
2018-09-03T20:30:53.363Z,87.16
2018-09-03T20:33:22.230Z,86.40
2018-09-03T20:35:51.158Z,85.79
2018-09-03T20:38:20.182Z,85.52
2018-09-03T20:40:48.977Z,86.89
2018-09-03T20:43:17.632Z,86.38
2018-09-03T20:45:46.366Z,85.78
2018-09-03T20:48:15.107Z,85.74
2018-09-03T20:50:43.924Z,85.94
2018-09-03T20:53:12.695Z,86.33
2018-09-03T20:55:41.473Z,85.95
2018-09-03T20:58:10.592Z,86.96
2018-09-03T21:00:39.342Z,86.05
2018-09-03T21:03:08.030Z,86.21
2018-09-03T21:05:36.792Z,85.43
2018-09-03T21:08:05.728Z,85.05
2018-09-03T21:10:34.529Z,86.24
2018-09-03T21:13:03.598Z,86.93
2018-09-03T21:15:32.257Z,87.00
2018-09-03T21:18:00.976Z,87.44
2018-09-03T21:20:29.754Z,86.99
2018-09-03T21:22:58.450Z,87.22
2018-09-03T21:25:27.162Z,87.64
2018-09-03T21:27:55.829Z,87.84
2018-09-03T21:30:24.842Z,88.01
2018-09-03T21:32:53.494Z,87.68
2018-09-03T21:35:22.366Z,87.93
2018-09-03T21:37:51.178Z,86.34
2018-09-03T21:40:20.161Z,86.44
2018-09-03T21:42:49.094Z,87.30
2018-09-03T21:45:17.863Z,87.64
2018-09-03T21:47:46.537Z,87.39
2018-09-03T21:50:15.195Z,88.21
2018-09-03T21:52:43.941Z,88.57
2018-09-03T21:55:12.937Z,88.64
2018-09-03T21:57:41.830Z,88.19
2018-09-03T22:00:11.204Z,87.05
2018-09-03T22:02:40.032Z,86.86
2018-09-03T22:05:08.849Z,86.89
2018-09-03T22:07:37.547Z,86.94
2018-09-03T22:10:06.362Z,87.45
2018-09-03T22:12:35.181Z,87.41
2018-09-03T22:15:03.994Z,87.22
2018-09-03T22:17:32.730Z,88.21
2018-09-03T22:20:01.750Z,87.84
2018-09-03T22:22:30.514Z,86.67
2018-09-03T22:24:59.389Z,86.65
2018-09-03T22:27:28.415Z,86.28
2018-09-03T22:29:57.298Z,86.67
2018-09-03T22:32:26.410Z,87.27
2018-09-03T22:34:55.160Z,87.42
2018-09-03T22:37:23.838Z,87.80
2018-09-03T22:39:52.575Z,87.09
2018-09-03T22:42:24.978Z,87.51
2018-09-03T22:44:54.146Z,87.47
2018-09-03T22:47:23.035Z,87.49
2018-09-03T22:49:51.817Z,87.15
2018-09-03T22:52:20.844Z,87.05
2018-09-03T22:54:49.731Z,87.22
2018-09-03T22:57:18.879Z,87.48
2018-09-03T22:59:47.784Z,87.98
2018-09-03T23:02:16.479Z,87.74
2018-09-03T23:04:45.283Z,87.87
2018-09-03T23:07:13.939Z,88.15
2018-09-03T23:09:42.878Z,87.72
2018-09-03T23:12:11.609Z,87.42
2018-09-03T23:14:40.291Z,87.94
2018-09-03T23:17:09.005Z,87.68
2018-09-03T23:19:37.661Z,89.58
2018-09-03T23:22:06.801Z,89.04
2018-09-03T23:24:35.493Z,88.60
2018-09-03T23:27:04.267Z,88.92
2018-09-03T23:29:33.041Z,88.53
2018-09-03T23:32:01.703Z,87.94
2018-09-03T23:34:30.534Z,86.95
2018-09-03T23:36:59.451Z,87.14
2018-09-03T23:39:28.178Z,87.07
2018-09-03T23:41:57.105Z,89.06
2018-09-03T23:44:25.821Z,88.17
2018-09-03T23:46:54.593Z,88.20
2018-09-03T23:49:23.326Z,88.30
2018-09-03T23:51:52.026Z,88.55
2018-09-03T23:54:20.753Z,87.56
2018-09-03T23:56:49.481Z,86.39
2018-09-03T23:59:18.186Z,86.41
